Farmington, California
Current Conditions -  °F | °C
As of 1:55 AM on Tuesday 27 Jan 2015 (Local Time) from KSCK Reporting Station
Haze Haze  
Wind Chill: 50°   Ceiling: Unl
Heat Index: 50°   Visibility: 6mi
Dew Point: 46°   Wind: 5mph
Humidity: 86%   Direction: 200°SSW
Pressure: 30.04"   Gusts: NA
Location:  37.93°N, 121°W
Report Text: KSCK 270955Z AUTO 20004KT 6SM BR FEW120 10/08 A3004 RMK AO2 SLP171 T01000078
Loading
Personal Weather Stations






























Interactive Weather Map New forecast layout! Learn more

10-Day Weather Forecast

Advertisements
Track Severe Weather on mobile